Time;durP1;ratioP1;P1;durP2;ratioP2;P2;SDS_P1;SDS_P2;PMS_P1;PMS_P2;Temp;Humidity;BMP_temperature;BMP_pressure;BME280_temperature;BME280_humidity;BME280_pressure;Samples;Min_cycle;Max_cycle;Signal;HPM_P1;HPM_P2
2023/08/28 00:02:20;;;;;;;0.98;0.13;;;;;;;11.42;60.41;100844.19;4975064;28;20034;-77
2023/08/28 00:04:46;;;;;;;2.75;0.10;;;;;;;11.42;60.62;100854.66;4979968;28;20075;-77
2023/08/28 00:07:13;;;;;;;2.45;0.10;;;;;;;11.33;60.86;100846.34;4995307;28;20029;-78
2023/08/28 00:09:39;;;;;;;0.50;0.10;;;;;;;11.38;60.17;100850.47;4980513;28;20132;-77
2023/08/28 00:12:05;;;;;;;2.17;0.30;;;;;;;11.82;59.75;100854.66;4981156;28;20033;-78
2023/08/28 00:14:31;;;;;;;3.13;0.20;;;;;;;11.64;59.60;100836.25;4993288;28;20037;-77
2023/08/28 00:16:57;;;;;;;1.35;0.30;;;;;;;11.67;59.57;100850.97;4983522;28;20712;-76
2023/08/28 00:19:23;;;;;;;0.70;0.10;;;;;;;11.54;59.84;100850.66;4987124;28;20708;-76
2023/08/28 00:21:48;;;;;;;1.80;0.13;;;;;;;11.30;60.93;100854.34;4982789;28;20116;-76
2023/08/28 00:24:13;;;;;;;2.22;0.20;;;;;;;11.33;61.00;100873.38;4996721;28;20635;-78
2023/08/28 00:26:39;;;;;;;3.25;0.47;;;;;;;11.33;60.79;100870.78;4980339;28;20041;-77
2023/08/28 00:29:04;;;;;;;3.92;0.55;;;;;;;11.46;60.53;100866.72;4981898;28;20048;-76
2023/08/28 00:31:30;;;;;;;2.65;0.20;;;;;;;11.60;59.54;100860.84;4977863;28;20843;-75
2023/08/28 00:33:55;;;;;;;0.75;0.20;;;;;;;11.55;59.84;100869.81;4978961;28;20083;-76
2023/08/28 00:36:21;;;;;;;1.63;0.10;;;;;;;11.71;59.34;100877.84;4966855;28;20448;-77
2023/08/28 00:38:47;;;;;;;0.75;0.10;;;;;;;11.53;59.78;100875.13;4979989;28;20472;-75
2023/08/28 00:41:12;;;;;;;1.10;0.10;;;;;;;11.61;59.66;100882.63;4985700;28;20034;-76
2023/08/28 00:43:38;;;;;;;0.35;0.10;;;;;;;11.81;59.13;100885.25;4996253;28;20044;-77
2023/08/28 00:46:05;;;;;;;0.82;0.10;;;;;;;11.89;59.06;100884.91;4984702;28;20524;-78
2023/08/28 00:48:31;;;;;;;0.50;0.20;;;;;;;11.83;59.38;100883.41;4977739;28;20058;-77
2023/08/28 00:50:57;;;;;;;7.25;0.25;;;;;;;11.64;59.55;100877.25;4962708;28;20080;-76
2023/08/28 00:53:23;;;;;;;0.52;0.10;;;;;;;11.58;59.80;100883.63;4993326;28;20712;-77
2023/08/28 00:55:50;;;;;;;4.28;0.10;;;;;;;11.42;59.94;100880.84;4993785;28;20109;-76
2023/08/28 00:58:16;;;;;;;1.92;0.40;;;;;;;11.56;59.45;100874.16;4998271;28;20073;-77
2023/08/28 01:00:41;;;;;;;3.08;0.55;;;;;;;11.18;60.01;100879.28;4981793;28;20164;-75
2023/08/28 01:03:07;;;;;;;0.70;0.20;;;;;;;11.05;61.08;100878.94;4979764;28;20188;-76
2023/08/28 01:05:46;;;;;;;2.17;1.00;;;;;;;11.03;60.93;100879.00;4983160;28;20025;-76
2023/08/28 01:08:37;;;;;;;0.82;0.20;;;;;;;11.02;60.85;100882.53;4962934;28;20030;-77
2023/08/28 01:11:14;;;;;;;3.67;0.30;;;;;;;11.16;60.24;100886.34;4990602;28;20034;-75
2023/08/28 01:13:50;;;;;;;0.43;0.10;;;;;;;11.42;59.81;100886.06;4958596;28;20056;-76
2023/08/28 01:16:16;;;;;;;3.40;0.20;;;;;;;11.21;60.30;100897.44;4980169;28;20034;-76
2023/08/28 01:18:42;;;;;;;2.47;0.20;;;;;;;11.29;60.27;100921.53;4995886;28;20053;-77
2023/08/28 01:21:09;;;;;;;4.90;0.40;;;;;;;11.30;60.34;100922.38;4960298;28;20037;-76
2023/08/28 01:23:58;;;;;;;5.55;0.50;;;;;;;11.12;61.25;100910.91;4979421;28;20080;-76
2023/08/28 01:26:24;;;;;;;4.05;0.20;;;;;;;10.57;62.75;100913.97;4965111;28;20113;-77
2023/08/28 01:28:51;;;;;;;1.85;0.65;;;;;;;10.67;62.73;100909.25;4978651;28;20450;-75
2023/08/28 01:31:16;;;;;;;5.28;0.40;;;;;;;10.98;62.43;100901.88;4977126;28;20030;-76
2023/08/28 01:33:42;;;;;;;1.25;0.30;;;;;;;11.13;61.71;100889.94;4979613;28;20052;-75
2023/08/28 01:36:21;;;;;;;1.20;0.20;;;;;;;11.13;61.81;100889.06;4998588;28;20074;-75
2023/08/28 01:39:04;;;;;;;1.23;0.60;;;;;;;11.18;61.66;100887.97;4973943;28;20080;-75
2023/08/28 01:41:31;;;;;;;3.08;0.30;;;;;;;11.22;61.60;100884.31;4996348;28;20036;-75
2023/08/28 01:44:00;;;;;;;0.68;0.10;;;;;;;11.36;61.23;100893.34;4992482;28;20244;-77
2023/08/28 01:46:31;;;;;;;2.03;0.30;;;;;;;11.18;61.46;100892.34;4978148;28;20034;-77
2023/08/28 01:48:57;;;;;;;0.70;0.20;;;;;;;11.17;61.56;100885.41;4994583;28;20309;-76
2023/08/28 01:51:23;;;;;;;3.10;0.30;;;;;;;11.28;61.31;100875.34;4960704;28;20167;-77
2023/08/28 01:53:49;;;;;;;4.78;0.98;;;;;;;11.24;61.32;100871.13;4975407;28;20030;-76
2023/08/28 01:56:20;;;;;;;1.85;0.57;;;;;;;11.16;61.16;100870.63;4999633;28;20032;-76
2023/08/28 01:58:50;;;;;;;1.05;0.35;;;;;;;11.03;61.87;100872.91;4992122;28;20053;-76
2023/08/28 02:01:15;;;;;;;2.67;0.30;;;;;;;11.19;60.97;100884.41;4977599;28;20038;-77
2023/08/28 02:03:41;;;;;;;2.47;0.30;;;;;;;10.97;61.56;100881.88;4975628;28;20100;-76
2023/08/28 02:06:08;;;;;;;4.32;0.40;;;;;;;10.88;62.07;100877.00;4982143;28;20201;-76
2023/08/28 02:08:35;;;;;;;1.65;0.93;;;;;;;10.91;61.69;100878.66;4982755;28;20078;-78
2023/08/28 02:11:01;;;;;;;1.55;0.57;;;;;;;11.09;60.78;100871.81;4978715;28;20492;-74
2023/08/28 02:13:27;;;;;;;2.20;0.52;;;;;;;11.09;60.80;100872.66;4983810;28;20037;-76
2023/08/28 02:15:53;;;;;;;1.25;0.70;;;;;;;11.01;61.05;100870.34;4992862;28;20034;-79
2023/08/28 02:18:18;;;;;;;2.45;0.65;;;;;;;10.83;61.77;100879.81;4985061;28;20511;-78
2023/08/28 02:20:45;;;;;;;3.25;0.95;;;;;;;10.64;62.04;100879.69;4972617;28;20509;-78
2023/08/28 02:23:11;;;;;;;1.33;0.60;;;;;;;10.52;62.53;100880.16;4962087;28;20050;-78
2023/08/28 02:25:44;;;;;;;1.58;0.50;;;;;;;10.52;62.45;100885.38;4996160;28;20084;-76
2023/08/28 02:28:09;;;;;;;2.53;1.00;;;;;;;10.63;61.94;100883.19;4983433;28;20042;-77
2023/08/28 02:30:37;;;;;;;2.53;0.60;;;;;;;10.59;61.87;100886.88;4984416;28;20052;-78
2023/08/28 02:33:03;;;;;;;2.80;1.15;;;;;;;10.40;62.59;100898.97;4981471;28;20049;-77
2023/08/28 02:35:28;;;;;;;2.40;0.93;;;;;;;10.38;62.07;100896.38;4987543;28;20066;-77
2023/08/28 02:37:54;;;;;;;3.83;0.60;;;;;;;10.56;61.56;100904.44;4980057;28;20033;-77
2023/08/28 02:40:19;;;;;;;2.38;0.85;;;;;;;10.16;62.91;100905.97;4986924;28;20026;-77
2023/08/28 02:42:45;;;;;;;2.45;0.85;;;;;;;10.55;61.64;100905.34;4976836;28;20133;-76
2023/08/28 02:45:10;;;;;;;2.50;1.00;;;;;;;10.35;61.89;100908.75;4980262;28;20124;-78
2023/08/28 02:47:36;;;;;;;7.20;1.15;;;;;;;10.35;62.04;100901.75;4983844;28;20075;-79
2023/08/28 02:50:02;;;;;;;3.30;1.17;;;;;;;10.39;61.51;100899.84;4967579;28;20121;-78
2023/08/28 02:52:28;;;;;;;1.63;1.02;;;;;;;10.26;62.44;100898.63;4979557;28;20155;-77
2023/08/28 02:54:53;;;;;;;2.63;0.77;;;;;;;10.49;61.76;100898.59;4997017;28;20038;-78
2023/08/28 02:57:18;;;;;;;2.42;0.77;;;;;;;10.61;60.94;100898.09;4982551;28;20088;-77
2023/08/28 02:59:44;;;;;;;3.33;0.73;;;;;;;10.57;60.86;100898.28;4999820;28;20038;-77
2023/08/28 03:02:10;;;;;;;2.90;1.08;;;;;;;10.53;61.40;100894.94;4984256;28;20044;-77
2023/08/28 03:04:35;;;;;;;7.22;1.33;;;;;;;10.58;61.03;100895.59;4979550;28;20092;-75
2023/08/28 03:07:01;;;;;;;3.22;0.90;;;;;;;10.55;61.07;100898.34;4983136;28;20761;-76
2023/08/28 03:09:29;;;;;;;5.22;0.80;;;;;;;10.61;60.92;100892.88;4997199;28;20083;-76
2023/08/28 03:11:55;;;;;;;4.10;0.80;;;;;;;10.67;60.74;100894.41;4978350;28;20041;-78
2023/08/28 03:14:21;;;;;;;1.27;0.55;;;;;;;10.63;60.78;100898.03;4992624;28;20052;-77
2023/08/28 03:16:46;;;;;;;1.27;0.70;;;;;;;10.62;60.76;100891.97;4968286;28;20041;-77
2023/08/28 03:19:12;;;;;;;1.52;0.88;;;;;;;10.71;60.39;100897.75;4986164;28;20042;-76
2023/08/28 03:21:37;;;;;;;5.05;0.63;;;;;;;10.61;60.45;100897.25;4993515;28;20516;-75
2023/08/28 03:24:03;;;;;;;2.42;0.73;;;;;;;10.55;60.68;100898.34;4984023;28;21136;-75
2023/08/28 03:26:29;;;;;;;3.63;1.00;;;;;;;10.56;60.74;100899.19;4980209;28;20040;-77
2023/08/28 03:28:55;;;;;;;5.10;1.00;;;;;;;10.54;60.51;100893.19;4982236;28;20030;-76
2023/08/28 03:31:22;;;;;;;2.67;1.10;;;;;;;10.41;60.89;100901.50;4983510;28;20041;-76
2023/08/28 03:33:47;;;;;;;4.57;0.82;;;;;;;10.38;61.64;100911.22;4987176;28;20457;-77
2023/08/28 03:36:13;;;;;;;2.00;0.70;;;;;;;10.55;60.96;100916.66;4985008;28;20080;-77
2023/08/28 03:38:38;;;;;;;2.63;1.20;;;;;;;10.47;61.27;100929.16;4976307;28;20054;-77
2023/08/28 03:41:04;;;;;;;2.00;0.50;;;;;;;10.62;60.52;100940.78;4985834;28;20030;-77
2023/08/28 03:43:29;;;;;;;1.17;0.60;;;;;;;10.59;60.89;100948.72;4992018;28;20045;-77
2023/08/28 03:45:54;;;;;;;4.93;0.70;;;;;;;10.50;61.40;100949.94;4994211;28;20044;-78
2023/08/28 03:48:20;;;;;;;1.77;0.70;;;;;;;10.70;61.16;100954.38;4978638;28;20064;-77
2023/08/28 03:50:46;;;;;;;2.30;0.95;;;;;;;10.69;61.24;100960.53;5000259;28;20120;-76
2023/08/28 03:53:12;;;;;;;3.17;0.95;;;;;;;10.66;61.83;100962.41;4985743;28;20038;-76
2023/08/28 03:55:37;;;;;;;3.88;0.70;;;;;;;10.43;61.90;100962.38;4981009;28;20034;-76
2023/08/28 03:58:04;;;;;;;5.20;0.90;;;;;;;10.66;61.54;100960.66;4978087;28;20037;-76
2023/08/28 04:00:32;;;;;;;2.72;0.80;;;;;;;10.73;61.29;100954.28;4982548;28;20124;-77
2023/08/28 04:02:58;;;;;;;2.50;1.02;;;;;;;10.75;60.95;100944.63;4984385;28;20201;-76
2023/08/28 04:05:26;;;;;;;1.73;0.90;;;;;;;10.74;61.08;100949.91;4969486;28;20029;-76
2023/08/28 04:07:55;;;;;;;1.38;0.70;;;;;;;10.56;61.55;100939.25;4980463;28;20052;-77
2023/08/28 04:10:21;;;;;;;3.38;0.80;;;;;;;10.50;61.39;100944.69;4983357;28;20057;-78
2023/08/28 04:12:46;;;;;;;2.38;0.90;;;;;;;10.62;61.18;100954.69;4981444;28;20042;-76
2023/08/28 04:15:12;;;;;;;5.90;1.52;;;;;;;10.57;61.14;100951.41;4980661;28;20054;-77
2023/08/28 04:17:38;;;;;;;1.20;0.55;;;;;;;10.67;60.95;100959.75;4980821;28;20053;-76
2023/08/28 04:20:12;;;;;;;6.53;1.48;;;;;;;10.38;61.72;100963.47;4992490;28;20041;-77
2023/08/28 04:22:41;;;;;;;2.63;1.10;;;;;;;10.60;60.96;100971.34;4979467;28;20073;-76
2023/08/28 04:25:07;;;;;;;1.70;0.95;;;;;;;10.64;61.11;100976.41;4980886;28;20041;-77
2023/08/28 04:27:32;;;;;;;2.80;1.35;;;;;;;10.67;61.20;100974.59;4983976;28;20363;-77
2023/08/28 04:29:58;;;;;;;2.85;0.95;;;;;;;10.68;61.33;100984.97;4978362;28;20041;-78
2023/08/28 04:32:24;;;;;;;1.85;1.27;;;;;;;10.80;61.27;100994.13;4993349;28;20077;-76
2023/08/28 04:34:50;;;;;;;4.88;1.23;;;;;;;10.69;61.48;100991.06;4975494;28;20186;-77
2023/08/28 04:37:15;;;;;;;3.60;1.20;;;;;;;10.67;61.53;100992.88;4986189;28;20030;-77
2023/08/28 04:39:41;;;;;;;1.98;1.45;;;;;;;10.76;60.87;100998.59;4982541;28;20034;-76
2023/08/28 04:42:06;;;;;;;2.70;1.40;;;;;;;10.67;60.83;100990.28;4980092;28;20668;-74
2023/08/28 04:44:32;;;;;;;1.77;1.60;;;;;;;10.72;60.65;100996.16;4997626;28;20042;-75
2023/08/28 04:46:59;;;;;;;2.40;1.35;;;;;;;10.34;61.39;100993.25;4991074;28;20662;-76
2023/08/28 04:49:25;;;;;;;4.53;1.38;;;;;;;10.39;61.15;100986.06;4979411;28;20030;-77
2023/08/28 04:51:52;;;;;;;3.05;1.25;;;;;;;10.26;61.64;100987.44;4982059;28;20041;-76
2023/08/28 04:54:18;;;;;;;1.98;1.27;;;;;;;10.17;61.53;100986.88;4964132;28;20054;-77
2023/08/28 04:56:43;;;;;;;6.45;2.17;;;;;;;9.95;62.52;100999.84;4985661;28;20038;-78
2023/08/28 04:59:09;;;;;;;3.13;1.15;;;;;;;10.26;61.63;100995.28;4983309;28;20127;-77
2023/08/28 05:01:34;;;;;;;2.85;1.25;;;;;;;10.30;61.54;100999.47;4990908;28;20042;-78
2023/08/28 05:04:00;;;;;;;3.22;1.30;;;;;;;10.61;61.09;101004.41;4980664;28;20037;-77
2023/08/28 05:06:26;;;;;;;2.45;1.52;;;;;;;10.45;61.40;100998.91;4978037;28;20489;-77
2023/08/28 05:08:51;;;;;;;1.88;1.27;;;;;;;10.55;60.79;101009.88;4993554;28;20038;-76
2023/08/28 05:11:19;;;;;;;4.45;1.55;;;;;;;10.41;61.16;101019.09;4983804;28;20102;-79
2023/08/28 05:13:46;;;;;;;3.08;1.52;;;;;;;10.51;61.00;101018.75;4979468;28;20069;-77
2023/08/28 05:16:13;;;;;;;1.90;1.40;;;;;;;10.41;61.46;101028.69;4996944;28;20122;-77
2023/08/28 05:18:39;;;;;;;3.17;2.00;;;;;;;10.63;60.77;101033.97;4973609;28;20058;-77
2023/08/28 05:21:05;;;;;;;1.95;0.98;;;;;;;10.86;60.27;101043.59;4982481;28;20037;-77
2023/08/28 05:23:31;;;;;;;4.47;1.50;;;;;;;10.97;60.07;101049.25;4984870;28;20120;-77
2023/08/28 05:25:56;;;;;;;2.80;1.08;;;;;;;11.31;60.90;101044.44;4984102;28;20112;-76
2023/08/28 05:28:22;;;;;;;3.03;1.40;;;;;;;13.00;55.75;101043.16;4964199;28;20049;-76
2023/08/28 05:30:48;;;;;;;4.35;1.33;;;;;;;14.36;52.65;101042.50;4966467;28;20066;-77
2023/08/28 05:33:15;;;;;;;1.63;1.15;;;;;;;15.04;50.37;101031.81;4990547;28;20047;-76
2023/08/28 05:35:43;;;;;;;3.30;1.40;;;;;;;15.58;48.39;101026.94;4983770;28;20420;-74
2023/08/28 05:38:10;;;;;;;3.05;0.70;;;;;;;16.00;47.11;101017.44;4976865;28;20038;-75
2023/08/28 05:40:36;;;;;;;2.45;1.30;;;;;;;16.69;46.93;101007.03;4978947;28;20885;-75
2023/08/28 05:43:02;;;;;;;2.90;0.60;;;;;;;17.13;44.14;101013.03;4977365;28;20040;-77
2023/08/28 05:45:28;;;;;;;1.17;0.70;;;;;;;17.01;44.26;101004.13;4977542;28;20062;-76
2023/08/28 05:47:54;;;;;;;2.63;0.65;;;;;;;17.62;42.63;101008.00;4991113;28;20041;-76
2023/08/28 05:50:21;;;;;;;0.82;0.60;;;;;;;18.67;41.87;101003.38;4976223;28;20034;-77
2023/08/28 05:52:47;;;;;;;2.20;0.65;;;;;;;18.42;40.98;101001.66;4980077;28;20092;-77
2023/08/28 05:55:16;;;;;;;1.05;0.40;;;;;;;19.28;39.35;100998.88;4981104;28;20034;-77
2023/08/28 05:57:42;;;;;;;2.80;0.50;;;;;;;19.47;37.86;100992.19;4981680;28;20062;-75
2023/08/28 06:00:08;;;;;;;0.82;0.35;;;;;;;19.77;38.29;100998.78;4979305;28;20049;-76
2023/08/28 06:02:41;;;;;;;1.90;0.40;;;;;;;20.57;37.00;100984.53;4985952;28;20041;-78
2023/08/28 06:05:08;;;;;;;3.10;0.43;;;;;;;21.23;35.25;100985.31;4998833;28;20112;-77
2023/08/28 06:07:34;;;;;;;2.63;0.40;;;;;;;21.24;36.47;100981.66;4992786;28;20037;-77
2023/08/28 06:10:00;;;;;;;1.17;0.20;;;;;;;21.89;35.98;100971.75;5006449;28;20030;-75
2023/08/28 06:12:26;;;;;;;0.63;0.30;;;;;;;22.04;34.54;100974.03;5021250;28;20045;-79
2023/08/28 06:14:52;;;;;;;1.10;0.20;;;;;;;22.22;33.38;100961.78;5008799;28;20045;-76
2023/08/28 06:17:18;;;;;;;1.02;0.20;;;;;;;21.45;35.13;100971.03;5004056;28;20229;-75
2023/08/28 06:19:44;;;;;;;2.22;0.28;;;;;;;19.15;37.98;100968.97;5011262;28;20013;-76
2023/08/28 06:22:10;;;;;;;0.93;0.20;;;;;;;19.60;41.61;100963.81;5001591;28;20041;-77
2023/08/28 06:24:35;;;;;;;2.05;0.20;;;;;;;21.65;37.82;100958.72;4984953;28;20091;-76
2023/08/28 06:27:02;;;;;;;2.05;0.22;;;;;;;22.88;34.94;100958.56;4987797;28;20488;-75
2023/08/28 06:29:28;;;;;;;2.33;0.30;;;;;;;23.58;33.00;100951.16;4965758;28;20116;-76
2023/08/28 06:31:53;;;;;;;0.60;0.10;;;;;;;24.77;33.60;100945.09;4981781;28;20167;-77
2023/08/28 06:34:19;;;;;;;1.95;0.28;;;;;;;24.73;32.19;100952.59;4977455;28;20123;-76
2023/08/28 06:36:45;;;;;;;1.23;0.20;;;;;;;24.83;30.51;100957.84;5001379;28;20034;-78
2023/08/28 06:39:12;;;;;;;0.38;0.10;;;;;;;24.85;29.94;100961.22;4978278;28;20054;-77
2023/08/28 06:41:38;;;;;;;1.30;0.20;;;;;;;24.91;29.82;100960.59;4992618;28;20041;-77
2023/08/28 06:44:04;;;;;;;0.65;0.15;;;;;;;25.21;32.09;100966.53;4962605;28;20046;-76
2023/08/28 06:46:31;;;;;;;1.85;0.10;;;;;;;25.23;30.34;100969.91;4978490;28;20042;-77
2023/08/28 06:48:56;;;;;;;3.03;0.20;;;;;;;25.59;30.68;100969.84;4993593;28;20537;-76
2023/08/28 06:51:22;;;;;;;0.77;0.10;;;;;;;26.06;28.77;100977.47;4996896;28;20030;-77
2023/08/28 06:53:50;;;;;;;1.30;0.13;;;;;;;26.68;28.14;100977.16;4978552;28;20735;-76
2023/08/28 06:56:16;;;;;;;0.93;0.20;;;;;;;26.54;26.85;100983.97;4999269;28;20052;-77
2023/08/28 06:58:41;;;;;;;3.50;1.35;;;;;;;26.80;29.45;100991.06;4998142;28;20046;-77
2023/08/28 07:01:07;;;;;;;0.55;0.10;;;;;;;27.46;26.57;100986.56;4979474;28;20404;-76
2023/08/28 07:03:33;;;;;;;0.95;0.10;;;;;;;27.58;26.46;100989.72;4980172;28;20050;-75
2023/08/28 07:05:59;;;;;;;2.05;0.15;;;;;;;27.37;26.61;100988.44;4981842;28;20101;-76
2023/08/28 07:08:24;;;;;;;3.17;0.25;;;;;;;27.39;26.30;100986.41;4991781;28;20117;-76
2023/08/28 07:10:50;;;;;;;1.42;0.20;;;;;;;27.51;25.83;100990.41;4980858;28;20745;-78
2023/08/28 07:13:15;;;;;;;2.35;0.20;;;;;;;27.86;27.06;100988.34;4976964;28;20541;-78
2023/08/28 07:15:41;;;;;;;3.63;0.20;;;;;;;27.86;27.26;100988.34;4989857;28;20040;-78
2023/08/28 07:18:06;;;;;;;1.75;0.17;;;;;;;27.43;27.50;100993.13;4988665;28;20172;-78
2023/08/28 07:20:32;;;;;;;2.58;0.05;;;;;;;26.93;28.88;101001.31;4988572;28;20037;-78
2023/08/28 07:22:58;;;;;;;1.20;0.28;;;;;;;27.65;27.11;101006.84;4993578;28;20276;-77
2023/08/28 07:25:24;;;;;;;1.85;0.17;;;;;;;26.83;28.13;101004.19;4997765;28;20187;-79
2023/08/28 07:27:50;;;;;;;0.30;0.10;;;;;;;28.65;26.62;100993.69;4992928;28;20049;-78
2023/08/28 07:30:16;;;;;;;1.00;0.30;;;;;;;28.28;24.87;100995.25;4984348;28;20041;-78
2023/08/28 07:32:42;;;;;;;1.42;0.10;;;;;;;28.61;25.89;101008.47;4998254;28;20037;-77
2023/08/28 07:35:08;;;;;;;1.27;0.10;;;;;;;27.96;26.52;101003.41;5012435;28;20516;-77
2023/08/28 07:37:35;;;;;;;2.13;0.10;;;;;;;28.64;25.66;101007.34;4993777;28;20068;-78
2023/08/28 07:40:01;;;;;;;0.68;0.00;;;;;;;29.55;25.43;101011.81;4999999;28;20030;-78
2023/08/28 07:42:26;;;;;;;0.57;0.10;;;;;;;28.61;24.60;101013.84;4995014;28;20088;-78
2023/08/28 07:44:52;;;;;;;2.53;0.13;;;;;;;26.69;26.80;101014.53;4988833;28;20034;-77
2023/08/28 07:47:18;;;;;;;2.72;0.10;;;;;;;26.40;28.89;101030.16;5011948;28;20582;-76
2023/08/28 07:49:44;;;;;;;1.55;0.15;;;;;;;27.28;26.98;101035.91;5008461;28;20025;-76
2023/08/28 07:52:09;;;;;;;0.30;0.10;;;;;;;27.31;26.21;101048.13;5001394;28;20121;-76
2023/08/28 07:54:36;;;;;;;0.35;0.10;;;;;;;25.55;28.48;101051.44;5011307;28;20030;-75
2023/08/28 07:57:04;;;;;;;1.90;0.35;;;;;;;26.80;28.55;101056.25;5007593;28;20033;-77
2023/08/28 07:59:29;;;;;;;1.67;0.10;;;;;;;26.73;27.18;101059.78;5007486;28;20714;-79
2023/08/28 08:01:58;;;;;;;2.00;0.10;;;;;;;26.73;27.66;101062.44;4983070;28;20029;-76
2023/08/28 08:04:27;;;;;;;0.75;0.13;;;;;;;28.26;25.85;101066.31;5004520;28;20682;-77
2023/08/28 08:06:52;;;;;;;1.98;0.10;;;;;;;29.05;25.86;101069.75;5019879;28;20057;-78
2023/08/28 08:09:18;;;;;;;4.05;0.30;;;;;;;28.38;24.85;101061.38;4993854;28;20759;-76
2023/08/28 08:11:44;;;;;;;1.88;0.10;;;;;;;28.10;24.36;101048.38;5004582;28;20033;-78
2023/08/28 08:14:09;;;;;;;0.60;0.30;;;;;;;28.83;24.18;101049.06;5000317;28;20198;-76
2023/08/28 08:16:35;;;;;;;0.88;0.10;;;;;;;28.93;23.63;101055.88;4977178;28;20061;-76
2023/08/28 08:19:01;;;;;;;1.02;0.05;;;;;;;29.61;24.61;101055.22;4983097;28;20057;-75
2023/08/28 08:21:26;;;;;;;0.40;0.10;;;;;;;27.55;25.93;101066.06;4982902;28;20219;-76
2023/08/28 08:23:53;;;;;;;0.85;0.10;;;;;;;25.34;28.02;101073.97;4978494;28;20556;-74
2023/08/28 08:26:19;;;;;;;0.50;0.10;;;;;;;22.63;31.79;101073.59;4993149;28;20352;-76
2023/08/28 08:28:44;;;;;;;2.95;0.10;;;;;;;21.48;33.07;101069.19;4980747;28;20038;-77
2023/08/28 08:31:10;;;;;;;0.40;0.10;;;;;;;20.81;35.65;101075.50;4981007;28;20488;-75
2023/08/28 08:33:35;;;;;;;0.90;0.10;;;;;;;19.82;37.55;101070.88;4959925;28;20631;-75
2023/08/28 08:36:01;;;;;;;0.98;0.10;;;;;;;18.91;38.82;101080.22;4996592;28;20030;-77
2023/08/28 08:38:26;;;;;;;0.43;0.10;;;;;;;18.19;39.78;101078.19;4979375;28;20046;-75
2023/08/28 08:40:54;;;;;;;0.68;0.10;;;;;;;18.16;40.21;101075.75;4979534;28;20040;-76
2023/08/28 08:43:19;;;;;;;2.10;0.10;;;;;;;20.94;34.64;101068.28;4981681;28;20030;-75
2023/08/28 08:45:48;;;;;;;1.00;0.20;;;;;;;23.30;30.61;101070.28;4978745;28;20056;-76
2023/08/28 08:48:17;;;;;;;0.50;0.10;;;;;;;25.19;28.56;101060.28;4994611;28;20049;-77
2023/08/28 08:50:46;;;;;;;1.65;0.08;;;;;;;24.73;27.41;101058.66;4977276;28;20030;-75
2023/08/28 08:53:26;;;;;;;2.47;0.10;;;;;;;24.90;27.62;101065.84;4970285;28;20049;-76
2023/08/28 08:55:57;;;;;;;0.80;0.10;;;;;;;24.95;27.47;101063.56;4988615;28;20049;-75
2023/08/28 08:58:24;;;;;;;0.40;0.10;;;;;;;22.44;29.13;101071.72;4978763;28;20072;-75
2023/08/28 09:00:50;;;;;;;1.65;0.10;;;;;;;22.14;31.22;101065.44;4959024;28;20029;-77
2023/08/28 09:03:17;;;;;;;0.45;0.00;;;;;;;22.74;29.98;101073.50;4975242;28;20487;-77
2023/08/28 09:05:44;;;;;;;0.55;0.15;;;;;;;23.60;29.12;101066.59;4959907;28;20488;-76
2023/08/28 09:08:10;;;;;;;1.70;0.10;;;;;;;22.99;30.35;101075.69;4979125;28;20057;-77
2023/08/28 09:10:36;;;;;;;2.35;0.10;;;;;;;22.77;31.29;101073.25;4980307;28;20814;-78
2023/08/28 09:13:02;;;;;;;1.98;0.10;;;;;;;22.96;31.25;101088.44;4981159;28;20137;-76
2023/08/28 09:15:27;;;;;;;0.20;0.00;;;;;;;23.07;30.10;101079.47;4995835;28;20041;-76
2023/08/28 09:17:53;;;;;;;1.00;0.10;;;;;;;22.61;30.75;101072.91;4999204;28;20049;-76
2023/08/28 09:20:21;;;;;;;0.20;0.00;;;;;;;22.16;31.36;101076.81;4988739;28;20053;-75
2023/08/28 09:22:53;;;;;;;0.45;0.05;;;;;;;21.61;30.97;101074.31;4969242;28;20042;-75
2023/08/28 09:25:21;;;;;;;1.35;0.10;;;;;;;21.74;30.65;101080.31;4996148;28;20133;-76
2023/08/28 09:27:51;;;;;;;2.10;0.00;;;;;;;22.08;31.70;101082.78;4984741;28;20046;-76
2023/08/28 09:30:36;;;;;;;2.80;0.10;;;;;;;22.17;29.60;101076.66;4975780;28;20025;-77
2023/08/28 09:33:04;;;;;;;0.82;0.00;;;;;;;22.13;31.61;101077.88;4999939;28;20050;-75
2023/08/28 09:35:38;;;;;;;0.90;0.32;;;;;;;22.94;30.43;101085.94;4967350;28;20033;-75
2023/08/28 09:38:04;;;;;;;1.65;0.00;;;;;;;23.19;30.04;101086.38;4996308;28;20045;-76
2023/08/28 09:40:31;;;;;;;0.70;0.28;;;;;;;22.70;29.09;101085.44;4981307;28;20049;-77
2023/08/28 09:43:01;;;;;;;1.00;0.05;;;;;;;23.39;28.75;101088.09;4993220;28;20425;-78
2023/08/28 09:45:31;;;;;;;1.65;0.10;;;;;;;23.25;28.88;101095.63;4991924;28;20025;-77
2023/08/28 09:47:57;;;;;;;1.77;0.10;;;;;;;23.14;28.16;101096.59;4964825;28;20061;-76
2023/08/28 09:50:29;;;;;;;2.15;0.10;;;;;;;22.67;28.96;101093.66;4980860;28;20030;-76
2023/08/28 09:53:08;;;;;;;0.47;0.00;;;;;;;21.71;31.11;101095.66;4963400;28;20136;-76
2023/08/28 09:55:48;;;;;;;0.15;0.00;;;;;;;22.38;31.36;101100.59;4977070;28;21434;-76
2023/08/28 09:58:14;;;;;;;1.02;0.10;;;;;;;22.31;30.14;101101.25;4998719;28;20116;-77
2023/08/28 10:00:40;;;;;;;0.52;0.00;;;;;;;22.92;30.29;101095.03;4976174;28;20131;-75
2023/08/28 10:03:11;;;;;;;0.85;0.10;;;;;;;23.48;28.77;101098.91;4984329;28;20045;-77
2023/08/28 10:05:39;;;;;;;0.17;0.00;;;;;;;23.62;29.51;101101.97;4996347;28;20792;-76
2023/08/28 10:08:09;;;;;;;0.20;0.00;;;;;;;22.65;28.82;101101.81;4981509;28;20077;-76
2023/08/28 10:10:37;;;;;;;1.30;0.40;;;;;;;21.40;30.32;101108.84;4975467;28;20064;-74
2023/08/28 10:13:06;;;;;;;1.75;0.13;;;;;;;21.90;31.31;101105.63;4976893;28;20124;-77
2023/08/28 10:15:33;;;;;;;0.75;0.10;;;;;;;21.48;32.75;101116.22;4989943;28;20501;-77
2023/08/28 10:18:06;;;;;;;0.90;0.20;;;;;;;21.40;32.79;101118.63;4992796;28;20129;-77
2023/08/28 10:20:33;;;;;;;0.77;0.20;;;;;;;21.83;32.41;101110.59;4990303;28;20060;-77
2023/08/28 10:23:00;;;;;;;1.48;0.10;;;;;;;23.18;30.10;101114.00;4961704;28;20674;-76
2023/08/28 10:25:28;;;;;;;1.05;0.20;;;;;;;23.10;30.73;101122.72;4977254;28;20072;-77
2023/08/28 10:27:56;;;;;;;0.80;0.10;;;;;;;22.48;32.73;101113.09;4973416;28;20389;-76
2023/08/28 10:30:24;;;;;;;1.10;0.15;;;;;;;22.47;31.69;101114.06;4958057;28;20026;-76
2023/08/28 10:32:52;;;;;;;0.40;0.20;;;;;;;22.24;32.70;101114.22;4972469;28;20045;-76
2023/08/28 10:35:19;;;;;;;2.53;0.10;;;;;;;23.24;32.14;101120.63;4990307;28;20153;-79
2023/08/28 10:37:46;;;;;;;0.52;0.10;;;;;;;23.48;29.49;101115.75;4976647;28;20047;-76
2023/08/28 10:40:12;;;;;;;5.22;0.20;;;;;;;24.05;29.77;101115.84;4977731;28;20864;-75
2023/08/28 10:42:39;;;;;;;2.65;0.10;;;;;;;23.82;29.80;101109.97;4974509;28;20244;-76
2023/08/28 10:45:05;;;;;;;2.78;0.20;;;;;;;24.17;28.59;101117.38;4976573;28;20160;-77
2023/08/28 10:47:30;;;;;;;0.45;0.10;;;;;;;23.59;30.84;101117.44;4980176;28;20065;-76
2023/08/28 10:49:56;;;;;;;1.23;0.30;;;;;;;22.83;31.41;101119.81;4978704;28;20106;-76
2023/08/28 10:52:23;;;;;;;0.88;0.10;;;;;;;22.36;29.89;101122.97;4996873;28;20808;-79
2023/08/28 10:54:50;;;;;;;2.17;0.10;;;;;;;22.65;30.00;101117.78;4981482;28;20037;-75
2023/08/28 10:57:24;;;;;;;1.00;0.03;;;;;;;23.20;28.70;101117.38;4993205;28;20102;-76
2023/08/28 10:59:50;;;;;;;1.35;0.50;;;;;;;22.38;29.85;101124.56;4993704;28;20044;-77
2023/08/28 11:02:16;;;;;;;0.40;0.10;;;;;;;21.53;31.75;101121.97;4996142;28;20049;-78
2023/08/28 11:04:42;;;;;;;2.95;0.10;;;;;;;20.99;33.04;101114.88;4978036;28;20034;-74
2023/08/28 11:07:22;;;;;;;0.85;0.10;;;;;;;21.07;33.94;101113.28;4980123;28;20030;-77
2023/08/28 11:09:48;;;;;;;1.05;0.10;;;;;;;20.48;33.54;101118.88;4993865;28;20030;-76
2023/08/28 11:12:15;;;;;;;1.75;0.00;;;;;;;21.34;32.06;101114.66;4995757;28;20117;-76
2023/08/28 11:14:56;;;;;;;0.20;0.00;;;;;;;21.85;30.94;101113.97;4980477;28;20343;-76
2023/08/28 11:17:23;;;;;;;0.63;0.10;;;;;;;21.78;30.78;101118.13;4993313;28;20463;-77
2023/08/28 11:19:54;;;;;;;1.02;0.00;;;;;;;22.31;31.56;101115.38;4961092;28;20092;-77
2023/08/28 11:22:33;;;;;;;1.20;0.10;;;;;;;22.81;30.19;101127.97;4961876;28;20050;-77
2023/08/28 11:24:59;;;;;;;0.68;0.10;;;;;;;22.24;31.31;101134.69;4995896;28;20060;-77